createdAt,value
2018-01-17T00:01:37.524Z,90.20
2018-01-17T00:04:05.059Z,90.40
2018-01-17T00:06:32.578Z,90.40
2018-01-17T00:09:00.884Z,89.80
2018-01-17T00:11:28.497Z,89.80
2018-01-17T00:13:56.712Z,90.10
2018-01-17T00:16:25.002Z,89.10
2018-01-17T00:18:53.313Z,89.10
2018-01-17T00:21:20.826Z,89.10
2018-01-17T00:23:49.449Z,89.00
2018-01-17T00:26:16.968Z,89.00
2018-01-17T00:28:44.482Z,88.80
2018-01-17T00:31:11.993Z,88.30
2018-01-17T00:33:39.532Z,88.30
2018-01-17T00:36:07.042Z,87.40
2018-01-17T00:38:35.320Z,86.80
2018-01-17T00:41:03.619Z,87.10
2018-01-17T00:43:31.136Z,87.00
2018-01-17T00:45:58.652Z,86.60
2018-01-17T00:48:26.206Z,86.60
2018-01-17T00:50:54.496Z,86.10
2018-01-17T00:53:22.776Z,86.00
2018-01-17T00:55:51.177Z,85.40
2018-01-17T00:58:18.686Z,85.40
2018-01-17T01:00:46.272Z,85.60
2018-01-17T01:03:13.811Z,86.10
2018-01-17T01:05:42.093Z,84.90
2018-01-17T01:08:09.618Z,84.90
2018-01-17T01:10:37.147Z,84.40
2018-01-17T01:13:04.664Z,84.30
2018-01-17T01:15:32.176Z,84.30
2018-01-17T01:17:59.767Z,84.10
2018-01-17T01:20:27.333Z,83.60
2018-01-17T01:22:54.852Z,83.40
2018-01-17T01:25:22.387Z,83.50
2018-01-17T01:27:49.924Z,83.60
2018-01-17T01:30:17.456Z,83.60
2018-01-17T01:32:44.989Z,83.10
2018-01-17T01:35:12.507Z,83.50
2018-01-17T01:37:40.796Z,83.70
2018-01-17T01:40:09.098Z,83.60
2018-01-17T01:42:36.612Z,83.60
2018-01-17T01:45:05.014Z,84.10
2018-01-17T01:47:33.311Z,83.90
2018-01-17T01:50:00.839Z,83.70
2018-01-17T01:52:28.361Z,84.00
2018-01-17T01:54:55.887Z,84.30
2018-01-17T01:57:24.175Z,85.40
2018-01-17T01:59:52.468Z,86.10
2018-01-17T02:02:20.788Z,87.20
2018-01-17T02:04:48.333Z,87.10
2018-01-17T02:07:15.848Z,88.20
2018-01-17T02:09:43.463Z,88.90
2018-01-17T02:12:10.965Z,88.00
2018-01-17T02:14:38.737Z,89.30
2018-01-17T02:17:06.263Z,90.30
2018-01-17T02:19:33.767Z,90.90
2018-01-17T02:22:01.331Z,91.80
2018-01-17T02:24:28.987Z,92.00
2018-01-17T02:26:56.628Z,92.00
2018-01-17T02:29:24.130Z,92.50
2018-01-17T02:31:52.044Z,93.00
2018-01-17T02:34:20.328Z,93.60
2018-01-17T02:36:48.620Z,94.00
2018-01-17T02:39:16.157Z,94.00
2018-01-17T02:41:43.677Z,94.50
2018-01-17T02:44:11.215Z,94.50
2018-01-17T02:46:39.504Z,94.90
2018-01-17T02:49:07.036Z,94.90
2018-01-17T02:51:35.325Z,94.90
2018-01-17T02:54:03.620Z,94.60
2018-01-17T02:56:31.146Z,94.60
2018-01-17T02:58:58.669Z,94.50
2018-01-17T03:01:26.512Z,94.70
2018-01-17T03:03:54.788Z,94.70
2018-01-17T03:06:23.075Z,94.50
2018-01-17T03:08:51.416Z,95.00
2018-01-17T03:11:18.943Z,94.90
2018-01-17T03:13:46.461Z,95.00
2018-01-17T03:16:13.992Z,95.10
2018-01-17T03:18:41.649Z,95.10
2018-01-17T03:21:09.153Z,95.20
2018-01-17T03:23:36.735Z,95.00
2018-01-17T03:26:05.023Z,94.10
2018-01-17T03:28:33.321Z,94.30
2018-01-17T03:31:01.616Z,94.50
2018-01-17T03:33:29.126Z,94.50
2018-01-17T03:35:56.654Z,94.20
2018-01-17T03:38:24.492Z,93.70
2018-01-17T03:40:52.773Z,93.60
2018-01-17T03:43:21.053Z,93.50
2018-01-17T03:45:49.363Z,93.40
2018-01-17T03:48:16.872Z,93.40
2018-01-17T03:50:44.385Z,93.50
2018-01-17T03:53:11.916Z,93.00
2018-01-17T03:55:39.509Z,92.70
2018-01-17T03:58:07.797Z,93.00
2018-01-17T04:00:35.340Z,93.00
2018-01-17T04:03:03.627Z,93.30
2018-01-17T04:05:31.913Z,92.80
2018-01-17T04:08:00.224Z,93.30
2018-01-17T04:10:27.739Z,93.20
2018-01-17T04:12:55.352Z,93.40
2018-01-17T04:15:22.884Z,93.30
2018-01-17T04:17:51.195Z,93.00
2018-01-17T04:20:18.707Z,93.00
2018-01-17T04:22:46.254Z,93.10
2018-01-17T04:25:14.543Z,92.60
2018-01-17T04:27:42.059Z,92.60
2018-01-17T04:30:09.608Z,92.40
2018-01-17T04:32:37.888Z,92.50
2018-01-17T04:35:06.175Z,92.90
2018-01-17T04:37:34.478Z,92.20
2018-01-17T04:40:01.986Z,92.20
2018-01-17T04:42:29.506Z,91.70
2018-01-17T04:44:57.034Z,91.70
2018-01-17T04:47:24.551Z,91.20
2018-01-17T04:49:52.079Z,91.20
2018-01-17T04:52:20.754Z,90.90
2018-01-17T04:54:49.050Z,90.90
2018-01-17T04:57:17.341Z,91.00
2018-01-17T04:59:45.104Z,91.00
2018-01-17T05:02:13.379Z,90.90
2018-01-17T05:04:41.676Z,91.00
2018-01-17T05:07:09.981Z,90.50
2018-01-17T05:09:37.527Z,90.60
2018-01-17T05:12:05.793Z,90.40
2018-01-17T05:14:34.126Z,90.20
2018-01-17T05:17:01.649Z,90.20
2018-01-17T05:19:29.931Z,88.60
2018-01-17T05:21:58.230Z,90.40
2018-01-17T05:24:25.817Z,90.30
2018-01-17T05:26:53.325Z,89.00
2018-01-17T05:29:20.880Z,89.40
2018-01-17T05:31:48.394Z,88.40
2018-01-17T05:34:15.915Z,87.40
2018-01-17T05:36:43.450Z,87.00
2018-01-17T05:39:10.988Z,86.20
2018-01-17T05:41:38.516Z,86.20
2018-01-17T05:44:06.064Z,87.40
2018-01-17T05:46:33.584Z,85.90
2018-01-17T05:49:01.169Z,85.70
2018-01-17T05:51:28.709Z,86.00
2018-01-17T05:53:56.231Z,85.40
2018-01-17T05:56:23.791Z,85.20
2018-01-17T05:58:51.719Z,82.90
2018-01-17T06:01:19.216Z,83.80
2018-01-17T06:03:46.731Z,81.40
2018-01-17T06:06:14.286Z,82.10
2018-01-17T06:08:42.571Z,82.70
2018-01-17T06:11:10.869Z,82.60
2018-01-17T06:13:38.411Z,82.60
2018-01-17T06:16:06.700Z,82.10
2018-01-17T06:18:34.999Z,81.90
2018-01-17T06:21:02.565Z,81.90
2018-01-17T06:23:30.070Z,80.50
2018-01-17T06:25:57.593Z,80.70
2018-01-17T06:28:25.151Z,80.70
2018-01-17T06:30:52.678Z,80.20
2018-01-17T06:33:20.185Z,81.00
2018-01-17T06:35:47.731Z,80.00
2018-01-17T06:38:16.012Z,79.60
2018-01-17T06:40:44.299Z,79.60
2018-01-17T06:43:12.619Z,79.50
2018-01-17T06:45:40.128Z,79.50
2018-01-17T06:48:07.710Z,79.60
2018-01-17T06:50:36.033Z,79.50
2018-01-17T06:53:03.556Z,79.50
2018-01-17T06:55:31.841Z,79.50
2018-01-17T06:58:00.193Z,79.20
2018-01-17T07:00:27.808Z,79.20
2018-01-17T07:02:55.318Z,79.90
2018-01-17T07:05:22.861Z,80.00
2018-01-17T07:07:50.390Z,80.20
2018-01-17T07:10:17.905Z,80.50
2018-01-17T07:12:45.431Z,81.50
2018-01-17T07:15:12.960Z,81.30
2018-01-17T07:17:40.460Z,81.30
2018-01-17T07:20:07.997Z,81.60
2018-01-17T07:22:36.283Z,81.30
2018-01-17T07:25:04.560Z,81.30
2018-01-17T07:27:32.973Z,81.00
2018-01-17T07:30:00.517Z,81.00
2018-01-17T07:32:28.884Z,80.70
2018-01-17T07:34:56.423Z,80.60
2018-01-17T07:37:23.955Z,80.60
2018-01-17T07:39:51.520Z,80.60
2018-01-17T07:42:19.098Z,80.60
2018-01-17T07:44:46.620Z,80.60
2018-01-17T07:47:14.910Z,82.20
2018-01-17T07:49:43.223Z,83.40
2018-01-17T07:52:10.764Z,83.40
2018-01-17T07:54:38.292Z,83.50
2018-01-17T07:57:05.831Z,83.90
2018-01-17T07:59:33.387Z,83.90
2018-01-17T08:02:00.911Z,84.30
2018-01-17T08:04:29.383Z,84.00
2018-01-17T08:06:56.915Z,84.00
2018-01-17T08:09:24.436Z,82.80
2018-01-17T08:11:52.751Z,81.90
2018-01-17T08:14:20.287Z,81.90
2018-01-17T08:16:48.644Z,81.40
2018-01-17T08:19:16.183Z,81.40
2018-01-17T08:21:43.700Z,81.80
2018-01-17T08:24:11.232Z,82.10
2018-01-17T08:26:38.799Z,81.70
2018-01-17T08:29:06.408Z,81.10
2018-01-17T08:31:33.934Z,81.50
2018-01-17T08:34:01.477Z,81.90
2018-01-17T08:36:29.015Z,82.20
2018-01-17T08:38:56.698Z,82.50
2018-01-17T08:41:24.246Z,83.00
2018-01-17T08:43:51.781Z,83.40
2018-01-17T08:46:20.068Z,83.80
2018-01-17T08:48:47.623Z,83.80
2018-01-17T08:51:15.907Z,84.70
2018-01-17T08:53:44.192Z,83.10
2018-01-17T08:56:12.872Z,83.00
2018-01-17T08:58:41.149Z,83.10
2018-01-17T09:01:08.660Z,83.00
2018-01-17T09:03:36.450Z,83.20
2018-01-17T09:06:03.999Z,83.50
2018-01-17T09:08:31.504Z,84.80
2018-01-17T09:10:59.053Z,85.00
2018-01-17T09:13:26.585Z,86.40
2018-01-17T09:15:54.102Z,86.20
2018-01-17T09:18:21.987Z,86.70
2018-01-17T09:20:50.267Z,88.70
2018-01-17T09:23:18.562Z,90.00
2018-01-17T09:25:46.850Z,90.20
2018-01-17T09:28:14.375Z,90.20
2018-01-17T09:30:41.891Z,90.50
2018-01-17T09:33:09.452Z,90.00
2018-01-17T09:35:36.973Z,87.30
2018-01-17T09:38:04.587Z,88.60
2018-01-17T09:40:32.112Z,88.70
2018-01-17T09:42:59.633Z,88.60
2018-01-17T09:45:27.157Z,91.10
2018-01-17T09:47:55.471Z,91.10
2018-01-17T09:50:23.027Z,91.10
2018-01-17T09:52:50.553Z,91.10
2018-01-17T09:55:18.352Z,91.00
2018-01-17T09:57:45.884Z,90.40
2018-01-17T10:00:13.396Z,90.80
2018-01-17T10:02:40.960Z,90.50
2018-01-17T10:05:08.471Z,90.10
2018-01-17T10:07:36.089Z,89.20
2018-01-17T10:10:03.880Z,90.00
2018-01-17T10:12:31.403Z,90.20
2018-01-17T10:14:59.683Z,88.20
2018-01-17T10:17:27.992Z,86.30
2018-01-17T10:19:55.511Z,86.20
2018-01-17T10:22:23.041Z,85.90
2018-01-17T10:24:50.582Z,87.30
2018-01-17T10:27:18.205Z,84.90
2018-01-17T10:29:45.721Z,85.50
2018-01-17T10:32:13.628Z,85.80
2018-01-17T10:34:41.139Z,84.50
2018-01-17T10:37:08.667Z,84.40
2018-01-17T10:39:36.212Z,84.30
2018-01-17T10:42:03.760Z,84.30
2018-01-17T10:44:31.329Z,82.00
2018-01-17T10:46:59.608Z,82.30
2018-01-17T10:49:27.158Z,82.30
2018-01-17T10:51:54.755Z,82.60
2018-01-17T10:54:23.158Z,80.60
2018-01-17T10:56:50.692Z,80.50
2018-01-17T10:59:18.204Z,80.70
2018-01-17T11:01:46.522Z,80.80
2018-01-17T11:04:14.104Z,80.80
2018-01-17T11:06:41.625Z,80.50
2018-01-17T11:09:09.944Z,79.90
2018-01-17T11:11:37.647Z,79.80
2018-01-17T11:14:05.166Z,80.00
2018-01-17T11:16:33.022Z,79.60
2018-01-17T11:19:01.310Z,76.90
2018-01-17T11:21:29.611Z,77.00
2018-01-17T11:23:57.252Z,77.00
2018-01-17T11:26:25.543Z,76.10
2018-01-17T11:28:53.069Z,76.00
2018-01-17T11:31:20.605Z,75.80
2018-01-17T11:33:48.145Z,75.90
2018-01-17T11:36:19.879Z,75.30
2018-01-17T11:38:48.197Z,75.00
2018-01-17T11:41:15.715Z,74.80
2018-01-17T11:43:43.244Z,75.50
2018-01-17T11:46:10.776Z,76.90
2018-01-17T11:48:38.310Z,75.30
2018-01-17T11:51:05.955Z,74.80
2018-01-17T11:53:33.513Z,75.60
2018-01-17T11:56:01.056Z,75.40
2018-01-17T11:58:28.661Z,75.10
2018-01-17T12:00:56.215Z,75.10
2018-01-17T12:03:23.754Z,74.90
2018-01-17T12:05:51.285Z,73.40
2018-01-17T12:08:19.714Z,71.90
2018-01-17T12:10:47.316Z,71.90
2018-01-17T12:13:14.803Z,71.60
2018-01-17T12:15:43.128Z,72.00
2018-01-17T12:18:10.732Z,72.00
2018-01-17T12:20:38.343Z,71.10
2018-01-17T12:23:05.909Z,70.90
2018-01-17T12:25:33.423Z,71.00
2018-01-17T12:28:01.795Z,70.40
2018-01-17T12:30:29.342Z,70.40
2018-01-17T12:32:56.924Z,70.60
2018-01-17T12:35:24.549Z,70.00
2018-01-17T12:37:52.105Z,70.00
2018-01-17T12:40:20.396Z,69.40
2018-01-17T12:42:47.919Z,69.40
2018-01-17T12:45:15.471Z,70.10
2018-01-17T12:47:43.760Z,70.10
2018-01-17T12:50:11.293Z,69.40
2018-01-17T12:52:38.833Z,70.50
2018-01-17T12:55:06.358Z,71.20
2018-01-17T12:57:33.933Z,71.00
2018-01-17T13:00:01.468Z,71.00
2018-01-17T13:02:29.006Z,70.90
2018-01-17T13:04:56.657Z,70.10
2018-01-17T13:07:24.240Z,71.20
2018-01-17T13:09:51.757Z,71.60
2018-01-17T13:12:19.291Z,71.20
2018-01-17T13:14:46.844Z,71.50
2018-01-17T13:17:14.456Z,70.90
2018-01-17T13:19:41.959Z,71.10
2018-01-17T13:22:09.512Z,70.40
2018-01-17T13:24:37.050Z,70.90
2018-01-17T13:27:04.559Z,71.10
2018-01-17T13:29:32.124Z,71.10
2018-01-17T13:31:59.665Z,70.40
2018-01-17T13:34:27.963Z,70.80
2018-01-17T13:36:55.550Z,70.80
2018-01-17T13:39:23.787Z,71.10
2018-01-17T13:41:52.085Z,72.00
2018-01-17T13:44:19.654Z,71.80
2018-01-17T13:46:47.164Z,72.50
2018-01-17T13:49:14.695Z,73.60
2018-01-17T13:51:42.236Z,74.70
2018-01-17T13:54:10.534Z,75.60
2018-01-17T13:56:38.073Z,75.60
2018-01-17T13:59:06.381Z,76.70
2018-01-17T14:01:33.895Z,76.70
2018-01-17T14:04:01.425Z,78.30
2018-01-17T14:06:28.976Z,78.10
2018-01-17T14:08:56.497Z,79.70
2018-01-17T14:11:24.029Z,79.40
2018-01-17T14:13:51.572Z,80.60
2018-01-17T14:16:19.111Z,81.10
2018-01-17T14:18:47.471Z,81.60
2018-01-17T14:21:15.029Z,81.60
2018-01-17T14:23:42.582Z,82.80
2018-01-17T14:26:10.116Z,82.70
2018-01-17T14:28:37.658Z,82.50
2018-01-17T14:31:05.951Z,83.50
2018-01-17T14:33:33.492Z,83.50
2018-01-17T14:36:01.033Z,83.50
2018-01-17T14:38:29.326Z,85.00
2018-01-17T14:40:56.864Z,84.90
2018-01-17T14:43:24.414Z,84.40
2018-01-17T14:45:51.942Z,84.50
2018-01-17T14:48:20.723Z,84.40
2018-01-17T14:50:48.304Z,84.50
2018-01-17T14:53:15.795Z,84.60
2018-01-17T14:55:43.315Z,83.60
2018-01-17T14:58:10.856Z,83.20
2018-01-17T15:00:39.155Z,82.00
2018-01-17T15:03:06.677Z,82.70
2018-01-17T15:05:34.385Z,81.70
2018-01-17T15:08:01.980Z,81.70
2018-01-17T15:10:30.283Z,80.50
2018-01-17T15:12:58.037Z,80.60
2018-01-17T15:15:26.323Z,80.60
2018-01-17T15:17:53.843Z,80.60
2018-01-17T15:20:21.371Z,79.60
2018-01-17T15:22:48.902Z,80.10
2018-01-17T15:25:17.180Z,81.60
2018-01-17T15:27:44.717Z,81.00
2018-01-17T15:30:12.248Z,81.50
2018-01-17T15:32:39.944Z,82.70
2018-01-17T15:35:07.577Z,82.80
2018-01-17T15:37:35.100Z,85.00
2018-01-17T15:40:02.628Z,85.70
2018-01-17T15:42:30.205Z,86.50
2018-01-17T15:44:57.736Z,88.30
2018-01-17T15:47:25.281Z,89.40
2018-01-17T15:49:53.633Z,90.20
2018-01-17T15:52:21.165Z,90.10
2018-01-17T15:54:48.690Z,87.10
2018-01-17T15:57:17.018Z,87.70
2018-01-17T15:59:44.544Z,87.70
2018-01-17T16:02:12.827Z,89.00
2018-01-17T16:04:40.411Z,89.00
2018-01-17T16:07:07.928Z,89.10
2018-01-17T16:09:35.453Z,87.90
2018-01-17T16:12:03.003Z,87.50
2018-01-17T16:14:30.548Z,87.00
2018-01-17T16:16:58.870Z,86.00
2018-01-17T16:19:26.389Z,86.00
2018-01-17T16:21:54.675Z,87.20
2018-01-17T16:24:22.973Z,86.60
2018-01-17T16:26:50.515Z,86.40
2018-01-17T16:29:18.816Z,86.60
2018-01-17T16:31:47.218Z,85.60
2018-01-17T16:34:14.755Z,85.60
2018-01-17T16:36:43.046Z,85.60
2018-01-17T16:39:10.564Z,85.60
2018-01-17T16:41:38.108Z,85.40
2018-01-17T16:44:05.636Z,84.80
2018-01-17T16:46:33.248Z,84.70
2018-01-17T16:49:00.829Z,85.40
2018-01-17T16:51:28.360Z,85.30
2018-01-17T16:53:55.888Z,84.40
2018-01-17T16:56:24.196Z,84.20
2018-01-17T16:58:51.732Z,84.00
2018-01-17T17:01:20.028Z,84.00
2018-01-17T17:03:47.538Z,83.50
2018-01-17T17:06:15.077Z,83.20
2018-01-17T17:08:42.596Z,83.10
2018-01-17T17:11:10.489Z,83.20
2018-01-17T17:13:38.932Z,82.30
2018-01-17T17:16:06.464Z,82.10
2018-01-17T17:18:34.011Z,81.60
2018-01-17T17:21:01.535Z,82.00
2018-01-17T17:23:29.074Z,81.00
2018-01-17T17:25:56.630Z,80.00
2018-01-17T17:28:24.157Z,79.60
2018-01-17T17:30:52.522Z,78.70
2018-01-17T17:33:20.143Z,78.70
2018-01-17T17:35:47.660Z,78.30
2018-01-17T17:38:15.266Z,78.30
2018-01-17T17:40:42.795Z,78.20
2018-01-17T17:43:11.101Z,77.60
2018-01-17T17:45:38.652Z,77.60
2018-01-17T17:48:06.978Z,76.90
2018-01-17T17:50:34.511Z,76.90
2018-01-17T17:53:02.074Z,77.40
2018-01-17T17:55:30.378Z,76.60
2018-01-17T17:57:57.913Z,76.60
2018-01-17T18:00:26.222Z,76.60
2018-01-17T18:02:53.872Z,76.60
2018-01-17T18:05:22.157Z,76.70
2018-01-17T18:07:49.691Z,76.60
2018-01-17T18:10:17.308Z,76.70
2018-01-17T18:12:44.825Z,76.30
2018-01-17T18:15:12.356Z,76.60
2018-01-17T18:17:39.911Z,76.80
2018-01-17T18:20:07.461Z,76.70
2018-01-17T18:22:34.989Z,76.80
2018-01-17T18:25:02.545Z,76.90
2018-01-17T18:27:30.168Z,77.00
2018-01-17T18:29:57.696Z,76.90
2018-01-17T18:32:26.112Z,76.90
2018-01-17T18:34:53.667Z,76.80
2018-01-17T18:37:21.188Z,76.80
2018-01-17T18:39:48.819Z,77.40
2018-01-17T18:42:16.333Z,77.60
2018-01-17T18:44:44.601Z,78.00
2018-01-17T18:47:12.206Z,78.00
2018-01-17T18:49:39.667Z,78.00
2018-01-17T18:52:07.234Z,78.30
2018-01-17T18:54:35.538Z,78.40
2018-01-17T18:57:03.090Z,79.10
2018-01-17T18:59:30.623Z,78.10
2018-01-17T19:01:58.999Z,77.90
2018-01-17T19:04:26.492Z,77.90
2018-01-17T19:06:54.830Z,78.30
2018-01-17T19:09:22.377Z,78.20
2018-01-17T19:11:49.905Z,78.20
2018-01-17T19:14:17.473Z,78.30
2018-01-17T19:16:45.156Z,78.60
2018-01-17T19:19:12.901Z,78.50
2018-01-17T19:21:41.309Z,80.00
2018-01-17T19:24:08.866Z,80.00
2018-01-17T19:26:37.302Z,81.70
2018-01-17T19:29:04.834Z,81.70
2018-01-17T19:31:32.388Z,82.30
2018-01-17T19:33:59.926Z,82.80
2018-01-17T19:36:28.337Z,82.70
2018-01-17T19:38:55.861Z,82.70
2018-01-17T19:41:23.401Z,82.90
2018-01-17T19:43:51.712Z,83.20
2018-01-17T19:46:19.262Z,83.20
2018-01-17T19:48:46.789Z,82.50
2018-01-17T19:51:14.353Z,82.50
2018-01-17T19:53:41.930Z,82.00
2018-01-17T19:56:09.466Z,82.00
2018-01-17T19:58:37.003Z,82.10
2018-01-17T20:01:04.572Z,82.10
2018-01-17T20:03:32.118Z,82.10
2018-01-17T20:05:59.736Z,81.60
2018-01-17T20:08:28.171Z,81.60
2018-01-17T20:10:55.716Z,81.60
2018-01-17T20:13:23.254Z,81.60
2018-01-17T20:15:50.873Z,81.70
2018-01-17T20:18:18.485Z,81.70
2018-01-17T20:20:46.027Z,81.50
2018-01-17T20:23:14.382Z,81.30
2018-01-17T20:25:42.002Z,81.30
2018-01-17T20:28:09.529Z,81.70
2018-01-17T20:30:37.107Z,82.80
2018-01-17T20:33:05.437Z,85.50
2018-01-17T20:35:32.963Z,85.40
2018-01-17T20:38:00.539Z,86.50
2018-01-17T20:40:28.064Z,86.40
2018-01-17T20:42:55.591Z,86.70
2018-01-17T20:45:23.148Z,87.00
2018-01-17T20:47:51.558Z,87.90
2018-01-17T20:50:19.093Z,88.80
2018-01-17T20:52:46.714Z,90.00
2018-01-17T20:55:15.141Z,90.60
2018-01-17T20:57:42.688Z,90.60
2018-01-17T21:00:11.005Z,91.30
2018-01-17T21:02:38.685Z,91.30
2018-01-17T21:05:06.273Z,91.80
2018-01-17T21:07:33.829Z,92.00
2018-01-17T21:10:01.361Z,92.30
2018-01-17T21:12:28.895Z,92.50
2018-01-17T21:14:56.466Z,92.50
2018-01-17T21:17:24.812Z,92.90
2018-01-17T21:19:52.436Z,92.90
2018-01-17T21:22:20.009Z,93.20
2018-01-17T21:24:47.523Z,93.30
2018-01-17T21:27:15.060Z,93.30
2018-01-17T21:29:42.986Z,93.20
2018-01-17T21:32:12.086Z,93.30
2018-01-17T21:34:40.363Z,93.10
2018-01-17T21:37:08.684Z,93.20
2018-01-17T21:39:36.206Z,93.20
2018-01-17T21:42:04.493Z,92.90
2018-01-17T21:44:38.338Z,93.00
2018-01-17T21:47:05.869Z,93.00
2018-01-17T21:49:34.169Z,93.00
2018-01-17T21:52:01.789Z,93.00
2018-01-17T21:54:29.312Z,92.80
2018-01-17T21:56:57.017Z,92.40
2018-01-17T21:59:24.587Z,92.30
2018-01-17T22:01:53.031Z,92.80
2018-01-17T22:04:23.033Z,92.10
2018-01-17T22:06:51.040Z,92.10
2018-01-17T22:09:18.564Z,92.00
2018-01-17T22:11:46.881Z,92.00
2018-01-17T22:14:14.412Z,92.00
2018-01-17T22:16:42.702Z,92.10
2018-01-17T22:19:11.537Z,92.10
2018-01-17T22:21:39.106Z,91.90
2018-01-17T22:24:06.616Z,92.10
2018-01-17T22:26:34.921Z,92.30
2018-01-17T22:29:02.456Z,92.30
2018-01-17T22:31:30.749Z,92.50
2018-01-17T22:33:58.433Z,92.50
2018-01-17T22:36:25.974Z,92.60
2018-01-17T22:38:54.358Z,92.80
2018-01-17T22:41:21.877Z,92.80
2018-01-17T22:43:49.423Z,92.80
2018-01-17T22:46:17.112Z,92.50
2018-01-17T22:48:44.643Z,92.70
2018-01-17T22:51:12.450Z,92.60
2018-01-17T22:53:40.000Z,92.70
2018-01-17T22:56:07.515Z,92.60
2018-01-17T22:58:35.931Z,92.80
2018-01-17T23:01:03.486Z,92.70
2018-01-17T23:03:31.071Z,92.80
2018-01-17T23:05:58.599Z,93.10
2018-01-17T23:08:26.914Z,92.80
2018-01-17T23:10:54.474Z,92.80
2018-01-17T23:13:22.341Z,92.80
2018-01-17T23:15:49.851Z,92.80
2018-01-17T23:18:17.369Z,92.80
2018-01-17T23:20:44.917Z,93.10
2018-01-17T23:23:13.222Z,92.60
2018-01-17T23:25:40.738Z,92.60
2018-01-17T23:28:08.558Z,92.70
2018-01-17T23:30:36.085Z,92.80
2018-01-17T23:33:03.611Z,92.80
2018-01-17T23:35:31.163Z,92.70
2018-01-17T23:37:58.716Z,92.70
2018-01-17T23:40:26.281Z,92.70
2018-01-17T23:42:54.589Z,92.50
2018-01-17T23:45:22.108Z,92.50
2018-01-17T23:47:50.408Z,92.60
2018-01-17T23:50:17.945Z,92.60
2018-01-17T23:52:46.236Z,92.60
2018-01-17T23:55:14.523Z,92.40
2018-01-17T23:57:42.849Z,92.30
